ADDS METAR Data INFO
IDs: Format: Raw Decoded Include TAF

Data at: 1013 UTC 12 Dec 2017

KIGX 120956Z AUTO 00000KT 10SM CLR 03/00 A2975 RMK AO2 SLP073 T00280000
KIGX 120856Z AUTO 00000KT 10SM CLR 03/00 A2977 RMK AO2 SLP081 T00330000 58028
KIGX 120756Z AUTO 00000KT 10SM CLR 04/M01 A2980 RMK AO2 SLP090 T00391006
KIGX 120656Z AUTO 00000KT 10SM CLR 04/M01 A2983 RMK AO2 SLP102 T00391011
KIGX 120556Z AUTO 00000KT 10SM CLR 04/M01 A2986 RMK AO2 SLP110 T00441011 10050 20022 58033
KIGX 120456Z AUTO 00000KT 10SM CLR 04/M01 A2989 RMK AO2 SLP121 T00391011 401281033
KIGX 120356Z AUTO 00000KT 10SM CLR 04/M01 A2994 RMK AO2 SLP136 T00391011
KIGX 120256Z AUTO 00000KT 10SM CLR 03/M01 A2996 RMK AO2 SLP144 T00281011 58012
KIGX 120156Z AUTO 00000KT 10SM CLR 03/M01 A2997 RMK AO2 SLP149 T00331006
KIGX 120056Z AUTO 00000KT 10SM CLR 04/M01 A2998 RMK AO2 SLP155 T00441006
KIGX 112356Z AUTO 00000KT 10SM CLR 04/M01 A2999 RMK AO2 SLP158 T00441006 10128 20044 56004
KIGX 112256Z AUTO 00000KT 10SM CLR 06/M01 A2999 RMK AO2 SLP158 T00611006
KIGX 112156Z AUTO 16003KT 10SM CLR 10/M02 A2999 RMK AO2 SLP159 T01001017
KIGX 112056Z AUTO VRB03KT 10SM CLR 12/M01 A3000 RMK AO2 SLP160 T01171011 58019
KIGX 111956Z AUTO VRB03KT 10SM CLR 12/M03 A3003 RMK AO2 SLP169 T01221028
KIGX 111856Z AUTO 00000KT 10SM CLR 12/M03 A3004 RMK AO2 SLP173 T01171028
KIGX 111756Z AUTO 32004KT 10SM CLR 11/M03 A3006 RMK AO2 SLP180 T01111028 10111 21033 58028
KIGX 111656Z AUTO VRB05KT 10SM CLR 10/M03 A3010 RMK AO2 SLP192 T01001028
KIGX 111556Z AUTO VRB04KT 10SM CLR 09/M03 A3014 RMK AO2 SLP207 T00941028
KIGX 111456Z AUTO 00000KT 10SM CLR 06/M01 A3014 RMK AO2 SLP210 T00611011 50007
KIGX 111356Z AUTO 26004KT 10SM CLR 01/M02 A3015 RMK AO2 SLP212 T00061022
KIGX 111256Z AUTO 00000KT 10SM CLR M02/M04 A3014 RMK AO2 SLP210 T10221039
KIGX 111156Z AUTO 00000KT 10SM CLR M03/M04 A3012 RMK AO2 SLP204 T10281039 11006 21033 53003
KIGX 111056Z AUTO 00000KT 10SM CLR M02/M04 A3012 RMK AO2 SLP203 T10221039
KIGX 110956Z AUTO 00000KT 10SM CLR M02/M04 A3011 RMK AO2 SLP198 T10221039
KIGX 110856Z AUTO 29003KT 10SM CLR M02/M04 A3011 RMK AO2 SLP198 T10171039 58007
KIGX 110756Z AUTO 28003KT 10SM CLR M01/M04 A3012 RMK AO2 SLP202 T10111039
KIGX 110656Z AUTO 00000KT 10SM CLR M01/M04 A3013 RMK AO2 SLP205 T10111044
KIGX 110556Z AUTO 00000KT 10SM CLR M01/M04 A3013 RMK AO2 SLP206 T10111039 11006 21022 56005
KIGX 110456Z AUTO 00000KT 10SM CLR M02/M03 A3014 RMK AO2 SLP210 T10171033 400561033
KIGX 110356Z AUTO 00000KT 10SM CLR M02/M04 A3013 RMK AO2 SLP205 T10171044
KIGX 110256Z AUTO 00000KT 10SM CLR M01/M04 A3015 RMK AO2 SLP212 T10111039 51005
KIGX 110156Z AUTO 27003KT 10SM CLR M02/M04 A3015 RMK AO2 SLP213 T10171044
KIGX 110056Z AUTO 00000KT 10SM CLR M01/M03 A3014 RMK AO2 SLP210 T10111033
KIGX 102356Z AUTO 00000KT 10SM CLR M01/M04 A3014 RMK AO2 SLP208 T10061039 10056 21006 51003
KIGX 102256Z AUTO 00000KT 10SM CLR 01/M03 A3014 RMK AO2 SLP207 T00061033